createdAt,value
2016-12-27T00:00:16.789Z,0
2016-12-27T00:00:58.494Z,0
2016-12-27T00:05:08.507Z,0
2016-12-27T00:05:50.230Z,0
2016-12-27T00:06:31.960Z,0
2016-12-27T00:08:31.959Z,0
2016-12-27T00:09:13.575Z,0
2016-12-27T00:09:55.105Z,0
2016-12-27T00:10:36.785Z,0
2016-12-27T00:11:18.346Z,0
2016-12-27T00:13:49.535Z,0
2016-12-27T00:14:31.234Z,0
2016-12-27T00:15:12.967Z,0
2016-12-27T00:15:54.681Z,0
2016-12-27T00:16:36.419Z,0
2016-12-27T00:17:18.004Z,0
2016-12-27T00:19:49.177Z,0
2016-12-27T00:20:30.949Z,0
2016-12-27T00:21:12.648Z,0
2016-12-27T00:21:54.076Z,0
2016-12-27T00:22:35.826Z,0
2016-12-27T00:23:17.377Z,0
2016-12-27T00:23:59.108Z,0
2016-12-27T00:26:14.617Z,0
2016-12-27T00:26:56.284Z,0
2016-12-27T00:27:37.944Z,0
2016-12-27T00:28:19.665Z,0
2016-12-27T00:29:01.413Z,0
2016-12-27T00:29:43.119Z,0
2016-12-27T00:30:24.875Z,0
2016-12-27T00:31:06.555Z,0
2016-12-27T00:31:48.040Z,0
2016-12-27T00:33:48.084Z,0
2016-12-27T00:34:29.823Z,0
2016-12-27T00:35:11.547Z,0
2016-12-27T00:37:11.655Z,0
2016-12-27T00:39:48.131Z,0
2016-12-27T00:40:29.937Z,0
2016-12-27T00:41:11.577Z,0
2016-12-27T00:41:53.226Z,0
2016-12-27T00:44:13.936Z,0
2016-12-27T00:44:55.452Z,0
2016-12-27T00:45:37.013Z,0
2016-12-27T00:47:37.005Z,0
2016-12-27T00:48:18.696Z,0
2016-12-27T00:49:00.415Z,0
2016-12-27T00:49:42.177Z,0
2016-12-27T00:50:23.883Z,0
2016-12-27T00:52:55.032Z,0
2016-12-27T00:53:36.777Z,0
2016-12-27T00:54:18.537Z,0
2016-12-27T00:55:00.308Z,0
2016-12-27T00:55:42.079Z,0
2016-12-27T00:56:23.759Z,0
2016-12-27T00:57:05.554Z,0
2016-12-27T00:57:47.272Z,0
2016-12-27T00:58:28.990Z,0
2016-12-27T00:59:10.745Z,0
2016-12-27T00:59:52.491Z,0
2016-12-27T01:00:34.184Z,0
2016-12-27T01:01:15.801Z,0
2016-12-27T01:01:57.544Z,0
2016-12-27T01:04:18.337Z,0
2016-12-27T01:04:59.927Z,0
2016-12-27T01:07:15.270Z,0
2016-12-27T01:07:57.075Z,0
2016-12-27T01:08:38.741Z,0
2016-12-27T01:09:20.385Z,0
2016-12-27T01:10:02.088Z,0
2016-12-27T01:10:43.726Z,0
2016-12-27T01:11:25.394Z,0
2016-12-27T01:13:25.530Z,0
2016-12-27T01:14:07.299Z,0
2016-12-27T01:14:48.996Z,0
2016-12-27T01:15:30.770Z,0
2016-12-27T01:18:07.214Z,0
2016-12-27T01:18:48.824Z,0
2016-12-27T01:20:48.902Z,0
2016-12-27T01:21:30.683Z,0
2016-12-27T01:22:12.447Z,0
2016-12-27T01:22:54.110Z,0
2016-12-27T01:25:09.343Z,0
2016-12-27T01:27:24.750Z,0
2016-12-27T01:28:06.506Z,0
2016-12-27T01:28:48.236Z,0
2016-12-27T01:29:29.948Z,0
2016-12-27T01:30:11.700Z,0
2016-12-27T01:30:53.463Z,0
2016-12-27T01:31:35.205Z,0
2016-12-27T01:32:17.005Z,0
2016-12-27T01:32:58.742Z,0
2016-12-27T01:33:40.495Z,0
2016-12-27T01:34:22.227Z,0
2016-12-27T01:35:03.905Z,0
2016-12-27T01:35:45.563Z,0
2016-12-27T01:36:27.052Z,0
2016-12-27T01:37:08.517Z,0
2016-12-27T01:37:50.277Z,0
2016-12-27T01:38:31.868Z,0
2016-12-27T01:40:52.480Z,0
2016-12-27T01:41:34.062Z,0
2016-12-27T01:42:15.575Z,0
2016-12-27T01:42:57.179Z,0
2016-12-27T01:45:12.438Z,0
2016-12-27T01:45:54.061Z,0
2016-12-27T01:46:35.821Z,0
2016-12-27T01:48:56.559Z,0
2016-12-27T01:49:38.111Z,0
2016-12-27T01:50:19.843Z,0
2016-12-27T01:51:01.488Z,0
2016-12-27T01:51:43.112Z,0
2016-12-27T01:52:24.724Z,0
2016-12-27T01:53:06.339Z,0
2016-12-27T01:53:47.904Z,0
2016-12-27T01:59:31.696Z,0
2016-12-27T02:00:12.234Z,0
2016-12-27T02:00:52.765Z,0
2016-12-27T02:01:33.288Z,0
2016-12-27T02:02:13.821Z,0
2016-12-27T02:02:54.347Z,0
2016-12-27T02:03:34.886Z,0
2016-12-27T02:04:15.417Z,0
2016-12-27T02:04:55.933Z,0
2016-12-27T02:05:36.464Z,0
2016-12-27T02:06:16.998Z,0
2016-12-27T02:06:57.516Z,0
2016-12-27T02:07:38.051Z,0
2016-12-27T02:08:18.581Z,0
2016-12-27T02:08:59.098Z,0
2016-12-27T02:09:39.619Z,0
2016-12-27T02:10:20.152Z,0
2016-12-27T02:11:00.681Z,0
2016-12-27T02:11:41.207Z,0
2016-12-27T02:12:21.754Z,0
2016-12-27T02:13:02.289Z,0
2016-12-27T02:13:42.805Z,0
2016-12-27T02:14:23.333Z,0
2016-12-27T02:15:03.851Z,0
2016-12-27T02:15:44.395Z,0
2016-12-27T02:16:24.924Z,0
2016-12-27T02:17:05.460Z,0
2016-12-27T02:17:45.992Z,0
2016-12-27T02:18:26.530Z,0
2016-12-27T02:19:07.052Z,0
2016-12-27T02:19:47.596Z,0
2016-12-27T02:20:28.130Z,0
2016-12-27T02:21:08.665Z,0
2016-12-27T02:21:49.197Z,0
2016-12-27T02:22:29.733Z,0
2016-12-27T02:23:10.261Z,0
2016-12-27T02:23:50.799Z,0
2016-12-27T02:24:31.321Z,0
2016-12-27T02:25:11.848Z,0
2016-12-27T02:25:52.385Z,0
2016-12-27T02:26:32.917Z,0
2016-12-27T02:27:13.453Z,0
2016-12-27T02:27:53.983Z,0
2016-12-27T02:28:34.519Z,0
2016-12-27T02:29:15.049Z,0
2016-12-27T02:29:55.587Z,0
2016-12-27T02:30:36.123Z,0
2016-12-27T02:31:16.656Z,0
2016-12-27T02:31:57.186Z,0
2016-12-27T02:32:37.720Z,0
2016-12-27T02:33:18.250Z,0
2016-12-27T02:33:58.799Z,0
2016-12-27T02:34:39.314Z,0
2016-12-27T02:35:19.857Z,0
2016-12-27T02:36:00.387Z,0
2016-12-27T02:36:40.928Z,0
2016-12-27T02:37:21.454Z,0
2016-12-27T02:38:01.988Z,0
2016-12-27T02:38:42.520Z,0
2016-12-27T02:39:23.064Z,0
2016-12-27T02:40:03.601Z,0
2016-12-27T02:40:44.129Z,0
2016-12-27T02:41:24.657Z,0
2016-12-27T02:42:05.201Z,0
2016-12-27T02:42:45.727Z,0
2016-12-27T02:43:26.262Z,0
2016-12-27T02:44:06.794Z,0
2016-12-27T02:44:47.330Z,0
2016-12-27T02:45:27.858Z,0
2016-12-27T02:46:08.390Z,0
2016-12-27T02:46:48.926Z,0
2016-12-27T02:47:29.445Z,0
2016-12-27T02:48:09.983Z,0
2016-12-27T02:48:50.512Z,0
2016-12-27T02:49:31.046Z,0
2016-12-27T02:50:11.569Z,0
2016-12-27T02:50:52.115Z,0
2016-12-27T02:51:32.636Z,0
2016-12-27T02:52:13.165Z,0
2016-12-27T02:52:53.702Z,0
2016-12-27T02:53:34.225Z,0
2016-12-27T02:54:14.773Z,0
2016-12-27T02:54:55.305Z,0
2016-12-27T02:55:35.836Z,0
2016-12-27T02:56:16.363Z,0
2016-12-27T02:56:56.896Z,0
2016-12-27T02:57:37.426Z,0
2016-12-27T02:58:17.967Z,0
2016-12-27T02:58:58.483Z,0
2016-12-27T02:59:39.013Z,0
2016-12-27T03:00:19.546Z,0
2016-12-27T03:01:00.073Z,0
2016-12-27T03:01:40.603Z,0
2016-12-27T03:02:21.134Z,0
2016-12-27T03:03:01.670Z,0
2016-12-27T03:03:42.198Z,0
2016-12-27T03:04:22.720Z,0
2016-12-27T03:05:03.277Z,0
2016-12-27T03:05:43.807Z,0
2016-12-27T03:06:24.346Z,0
2016-12-27T03:07:04.872Z,0
2016-12-27T03:07:45.410Z,0
2016-12-27T03:08:25.937Z,0
2016-12-27T03:09:06.476Z,0
2016-12-27T03:09:47.028Z,0
2016-12-27T03:10:27.567Z,0
2016-12-27T03:11:08.108Z,0
2016-12-27T03:11:48.636Z,0
2016-12-27T03:12:29.168Z,0
2016-12-27T03:13:09.705Z,0
2016-12-27T03:13:50.231Z,0
2016-12-27T03:14:30.758Z,0
2016-12-27T03:15:11.287Z,0
2016-12-27T03:15:51.821Z,0
2016-12-27T03:16:32.357Z,0
2016-12-27T03:17:12.890Z,0
2016-12-27T03:17:53.436Z,0
2016-12-27T03:18:33.965Z,0
2016-12-27T03:19:14.500Z,0
2016-12-27T03:19:55.031Z,0
2016-12-27T03:20:35.581Z,0
2016-12-27T03:21:16.118Z,0
2016-12-27T03:21:56.655Z,0
2016-12-27T03:22:37.187Z,0
2016-12-27T03:23:17.736Z,0
2016-12-27T03:23:58.267Z,0
2016-12-27T03:24:38.809Z,0
2016-12-27T03:25:19.337Z,0
2016-12-27T03:25:59.871Z,0
2016-12-27T03:26:40.399Z,0
2016-12-27T03:27:20.935Z,0
2016-12-27T03:28:01.470Z,0
2016-12-27T03:28:41.996Z,0
2016-12-27T03:29:22.531Z,0
2016-12-27T03:30:03.042Z,0
2016-12-27T03:30:43.588Z,0
2016-12-27T03:31:24.128Z,0
2016-12-27T03:32:04.660Z,0
2016-12-27T03:32:45.184Z,0
2016-12-27T03:33:25.720Z,0
2016-12-27T03:34:06.255Z,0
2016-12-27T03:34:46.791Z,0
2016-12-27T03:35:27.316Z,0
2016-12-27T03:36:07.845Z,0
2016-12-27T03:36:48.381Z,0
2016-12-27T03:37:28.902Z,0
2016-12-27T03:38:09.444Z,0
2016-12-27T03:38:49.968Z,0
2016-12-27T03:39:30.494Z,0
2016-12-27T03:40:11.035Z,0
2016-12-27T03:40:51.557Z,0
2016-12-27T03:41:32.091Z,0
2016-12-27T03:42:12.619Z,0
2016-12-27T03:42:53.149Z,0
2016-12-27T03:43:33.687Z,0
2016-12-27T03:44:14.223Z,0
2016-12-27T03:44:54.753Z,0
2016-12-27T03:45:35.287Z,0
2016-12-27T03:46:15.808Z,0
2016-12-27T03:46:56.339Z,0
2016-12-27T03:47:36.875Z,0
2016-12-27T03:48:17.407Z,0
2016-12-27T03:48:57.955Z,0
2016-12-27T03:49:38.497Z,0
2016-12-27T03:50:19.030Z,0
2016-12-27T03:50:59.561Z,0
2016-12-27T03:51:40.078Z,0
2016-12-27T03:52:20.614Z,0
2016-12-27T03:53:01.151Z,0
2016-12-27T03:53:41.682Z,0
2016-12-27T03:54:22.213Z,0
2016-12-27T03:55:02.743Z,0
2016-12-27T03:55:43.280Z,0
2016-12-27T03:56:23.809Z,0
2016-12-27T03:57:04.360Z,0
2016-12-27T03:57:46.525Z,0
2016-12-27T03:58:27.083Z,0
2016-12-27T03:59:07.601Z,0
2016-12-27T03:59:48.135Z,0
2016-12-27T04:00:28.664Z,0
2016-12-27T04:01:09.195Z,0
2016-12-27T04:01:49.726Z,0
2016-12-27T04:02:30.247Z,0
2016-12-27T04:03:10.781Z,0
2016-12-27T04:03:51.313Z,0
2016-12-27T04:04:31.848Z,0
2016-12-27T04:05:12.377Z,0
2016-12-27T04:05:52.906Z,0
2016-12-27T04:06:33.433Z,0
2016-12-27T04:07:13.964Z,0
2016-12-27T04:07:54.498Z,0
2016-12-27T04:08:35.035Z,0
2016-12-27T04:09:15.559Z,0
2016-12-27T04:09:56.087Z,0
2016-12-27T04:10:36.616Z,0
2016-12-27T04:11:17.151Z,0
2016-12-27T04:11:57.673Z,0
2016-12-27T04:12:38.199Z,0
2016-12-27T04:13:18.736Z,0
2016-12-27T04:13:59.289Z,0
2016-12-27T04:14:39.810Z,0
2016-12-27T04:15:20.384Z,0
2016-12-27T04:16:00.906Z,0
2016-12-27T04:16:41.439Z,0
2016-12-27T04:17:21.958Z,0
2016-12-27T04:18:02.495Z,0
2016-12-27T04:18:43.022Z,0
2016-12-27T04:19:23.562Z,0
2016-12-27T04:20:04.101Z,0
2016-12-27T04:20:44.648Z,0
2016-12-27T04:21:25.174Z,0
2016-12-27T04:22:05.701Z,0
2016-12-27T04:22:46.227Z,0
2016-12-27T04:23:26.751Z,0
2016-12-27T04:24:07.303Z,0
2016-12-27T04:24:47.808Z,0
2016-12-27T04:25:28.349Z,0
2016-12-27T04:26:08.871Z,0
2016-12-27T04:26:49.421Z,0
2016-12-27T04:27:29.967Z,0
2016-12-27T04:28:10.505Z,0
2016-12-27T04:28:51.012Z,0
2016-12-27T04:29:31.555Z,0
2016-12-27T04:30:12.092Z,0
2016-12-27T04:30:52.629Z,0
2016-12-27T04:31:33.170Z,0
2016-12-27T04:32:13.701Z,0
2016-12-27T04:32:54.214Z,0
2016-12-27T04:33:34.755Z,0
2016-12-27T04:34:15.299Z,0
2016-12-27T04:34:55.826Z,0
2016-12-27T04:35:36.372Z,0
2016-12-27T04:36:16.894Z,0
2016-12-27T04:36:57.416Z,0
2016-12-27T04:37:37.959Z,0
2016-12-27T04:38:18.479Z,0
2016-12-27T04:38:59.028Z,0
2016-12-27T04:39:39.563Z,0
2016-12-27T04:40:20.070Z,0
2016-12-27T04:41:00.611Z,0
2016-12-27T04:41:41.142Z,0
2016-12-27T04:42:21.666Z,0
2016-12-27T04:43:02.211Z,0
2016-12-27T04:43:42.724Z,0
2016-12-27T04:44:23.262Z,0
2016-12-27T04:45:03.795Z,0
2016-12-27T04:45:44.328Z,0
2016-12-27T04:46:24.859Z,0
2016-12-27T04:47:05.378Z,0
2016-12-27T04:47:45.917Z,0
2016-12-27T04:48:26.447Z,0
2016-12-27T04:49:06.980Z,0
2016-12-27T04:49:47.510Z,0
2016-12-27T04:50:28.041Z,0
2016-12-27T04:51:08.569Z,0
2016-12-27T04:51:49.094Z,0
2016-12-27T04:52:29.631Z,0
2016-12-27T04:53:10.164Z,0
2016-12-27T04:53:50.690Z,0
2016-12-27T04:54:31.222Z,0
2016-12-27T04:55:11.757Z,0
2016-12-27T04:55:52.281Z,0
2016-12-27T04:56:32.828Z,0
2016-12-27T04:57:13.364Z,0
2016-12-27T04:57:53.896Z,0
2016-12-27T04:58:34.423Z,0
2016-12-27T04:59:14.959Z,0
2016-12-27T04:59:55.491Z,0
2016-12-27T05:00:36.039Z,0
2016-12-27T05:01:16.568Z,0
2016-12-27T05:01:57.097Z,0
2016-12-27T05:02:37.634Z,0
2016-12-27T05:03:18.175Z,0
2016-12-27T05:03:58.723Z,0
2016-12-27T05:04:39.244Z,0
2016-12-27T05:05:19.782Z,0
2016-12-27T05:06:00.328Z,0
2016-12-27T05:06:40.872Z,0
2016-12-27T05:07:21.391Z,0
2016-12-27T05:08:01.930Z,0
2016-12-27T05:08:42.466Z,0
2016-12-27T05:09:22.995Z,0
2016-12-27T05:10:03.527Z,0
2016-12-27T05:10:44.054Z,0
2016-12-27T05:11:24.584Z,0
2016-12-27T05:12:05.118Z,0
2016-12-27T05:12:45.645Z,0
2016-12-27T05:13:26.177Z,0
2016-12-27T05:14:06.692Z,0
2016-12-27T05:14:47.231Z,0
2016-12-27T05:15:27.764Z,0
2016-12-27T05:16:08.300Z,0
2016-12-27T05:16:48.843Z,0
2016-12-27T05:17:29.402Z,0
2016-12-27T05:18:09.986Z,0
2016-12-27T05:18:50.523Z,0
2016-12-27T05:19:31.054Z,0
2016-12-27T05:20:11.587Z,0
2016-12-27T05:20:52.110Z,0
2016-12-27T05:21:32.646Z,0
2016-12-27T05:22:13.190Z,0
2016-12-27T05:22:53.727Z,0
2016-12-27T05:23:34.266Z,0
2016-12-27T05:24:14.807Z,0
2016-12-27T05:24:55.347Z,0
2016-12-27T05:25:35.869Z,0
2016-12-27T05:26:16.400Z,0
2016-12-27T05:26:56.939Z,0
2016-12-27T05:27:37.477Z,0
2016-12-27T05:28:18.014Z,0
2016-12-27T05:28:58.560Z,0
2016-12-27T05:29:39.107Z,0
2016-12-27T05:30:19.640Z,0
2016-12-27T05:31:00.193Z,0
2016-12-27T05:31:40.717Z,0
2016-12-27T05:32:21.315Z,0
2016-12-27T05:33:01.844Z,0
2016-12-27T05:33:42.377Z,0
2016-12-27T05:34:22.912Z,0
2016-12-27T05:35:03.448Z,0
2016-12-27T05:35:43.982Z,0
2016-12-27T05:36:24.525Z,0
2016-12-27T05:37:05.060Z,0
2016-12-27T05:37:45.590Z,0
2016-12-27T05:38:26.123Z,0
2016-12-27T05:39:06.653Z,0
2016-12-27T05:39:47.170Z,0
2016-12-27T05:40:27.699Z,0
2016-12-27T05:41:08.233Z,0
2016-12-27T05:41:48.765Z,0
2016-12-27T05:42:29.303Z,0
2016-12-27T05:43:09.837Z,0
2016-12-27T05:43:50.370Z,0
2016-12-27T05:44:30.907Z,0
2016-12-27T05:45:11.440Z,0
2016-12-27T05:45:51.968Z,0
2016-12-27T05:46:32.506Z,0
2016-12-27T05:47:13.024Z,0
2016-12-27T05:47:53.570Z,0
2016-12-27T05:48:34.092Z,0
2016-12-27T05:49:14.630Z,0
2016-12-27T05:49:55.163Z,0
2016-12-27T05:50:35.692Z,0
2016-12-27T05:51:16.223Z,0
2016-12-27T05:51:56.753Z,0
2016-12-27T05:52:37.286Z,0
2016-12-27T05:53:17.818Z,0
2016-12-27T05:53:58.359Z,0
2016-12-27T05:54:38.908Z,0
2016-12-27T05:55:19.424Z,0
2016-12-27T05:55:59.959Z,0
2016-12-27T05:56:40.488Z,0
2016-12-27T05:57:21.023Z,0
2016-12-27T05:58:01.566Z,0
2016-12-27T05:58:42.095Z,0
2016-12-27T05:59:22.629Z,0
2016-12-27T06:00:03.157Z,0
2016-12-27T06:00:43.695Z,0
2016-12-27T06:01:24.225Z,0
2016-12-27T06:02:04.766Z,0
2016-12-27T06:02:45.286Z,0
2016-12-27T06:03:25.831Z,0
2016-12-27T06:04:06.368Z,0
2016-12-27T06:04:46.897Z,0
2016-12-27T06:05:27.431Z,0
2016-12-27T06:06:07.970Z,0
2016-12-27T06:06:48.503Z,0
2016-12-27T06:07:29.037Z,0
2016-12-27T06:08:09.569Z,0
2016-12-27T06:08:50.102Z,0
2016-12-27T06:09:30.631Z,0
2016-12-27T06:10:11.153Z,0
2016-12-27T06:10:51.691Z,0
2016-12-27T06:11:32.216Z,0
2016-12-27T06:12:12.751Z,0
2016-12-27T06:12:53.285Z,0
2016-12-27T06:13:33.825Z,0
2016-12-27T06:14:14.383Z,0
2016-12-27T06:14:54.913Z,0
2016-12-27T06:15:35.453Z,0
2016-12-27T06:16:15.989Z,0
2016-12-27T06:16:56.524Z,0
2016-12-27T06:17:37.054Z,0
2016-12-27T06:18:17.585Z,0
2016-12-27T06:18:58.106Z,0
2016-12-27T06:19:38.643Z,0
2016-12-27T06:20:19.173Z,0
2016-12-27T06:20:59.703Z,0
2016-12-27T06:21:40.240Z,0
2016-12-27T06:22:20.771Z,0
2016-12-27T06:23:01.308Z,0
2016-12-27T06:23:41.858Z,0
2016-12-27T06:24:22.381Z,0
2016-12-27T06:25:02.914Z,0
2016-12-27T06:25:43.458Z,0
2016-12-27T06:26:23.986Z,0
2016-12-27T06:27:04.524Z,0
2016-12-27T06:27:45.051Z,0
2016-12-27T06:28:25.584Z,0
2016-12-27T06:29:06.113Z,0
2016-12-27T06:29:46.638Z,0
2016-12-27T06:30:27.170Z,0
2016-12-27T06:31:07.703Z,0
2016-12-27T06:31:48.232Z,0
2016-12-27T06:32:28.763Z,0
2016-12-27T06:33:09.298Z,0
2016-12-27T06:33:49.841Z,0
2016-12-27T06:34:30.377Z,0
2016-12-27T06:35:10.908Z,0
2016-12-27T06:35:51.439Z,0
2016-12-27T06:36:31.971Z,0
2016-12-27T06:37:12.499Z,0
2016-12-27T06:37:53.034Z,0
2016-12-27T06:38:33.562Z,0
2016-12-27T06:39:14.096Z,0
2016-12-27T06:39:54.634Z,0
2016-12-27T06:40:35.168Z,0
2016-12-27T06:41:15.704Z,0
2016-12-27T06:41:56.247Z,0
2016-12-27T06:42:36.798Z,0
2016-12-27T06:43:17.321Z,0
2016-12-27T06:43:57.864Z,0
2016-12-27T06:44:38.395Z,0
2016-12-27T06:45:18.935Z,0
2016-12-27T06:45:59.484Z,0
2016-12-27T06:46:40.014Z,0
2016-12-27T06:47:20.540Z,0
2016-12-27T06:48:01.068Z,0
2016-12-27T06:48:41.600Z,0
2016-12-27T06:49:22.130Z,0
2016-12-27T06:50:02.657Z,0
2016-12-27T06:50:43.203Z,0
2016-12-27T06:51:23.737Z,0
2016-12-27T06:52:04.269Z,0
2016-12-27T06:52:44.800Z,0
2016-12-27T06:53:25.341Z,0
2016-12-27T06:54:05.880Z,0
2016-12-27T06:54:46.413Z,0
2016-12-27T06:55:26.960Z,0
2016-12-27T06:56:07.497Z,0
2016-12-27T06:56:48.031Z,0
2016-12-27T06:57:28.573Z,0
2016-12-27T06:58:09.104Z,0
2016-12-27T06:58:49.639Z,0
2016-12-27T06:59:30.207Z,0
2016-12-27T07:00:10.740Z,0
2016-12-27T07:00:51.273Z,0
2016-12-27T07:01:31.811Z,0
2016-12-27T07:02:12.334Z,4
2016-12-27T07:02:52.877Z,4
2016-12-27T07:03:33.408Z,4
2016-12-27T07:04:13.938Z,4
2016-12-27T07:04:54.478Z,4
2016-12-27T07:05:35.032Z,4
2016-12-27T07:06:15.553Z,4
2016-12-27T07:06:56.081Z,4
2016-12-27T07:07:36.658Z,4
2016-12-27T07:08:17.185Z,0
2016-12-27T07:08:57.710Z,0
2016-12-27T07:09:38.242Z,0
2016-12-27T07:10:18.776Z,0
2016-12-27T07:10:59.324Z,4
2016-12-27T07:11:39.859Z,4
2016-12-27T07:12:20.369Z,4
2016-12-27T07:13:00.913Z,8
2016-12-27T07:13:41.446Z,8
2016-12-27T07:14:21.982Z,8
2016-12-27T07:15:02.525Z,8
2016-12-27T07:15:43.060Z,8
2016-12-27T07:16:23.587Z,12
2016-12-27T07:17:04.117Z,16
2016-12-27T07:17:44.650Z,16
2016-12-27T07:18:25.187Z,20
2016-12-27T07:19:05.723Z,20
2016-12-27T07:19:46.260Z,20
2016-12-27T07:20:26.805Z,24
2016-12-27T07:21:07.340Z,24
2016-12-27T07:21:47.870Z,28
2016-12-27T07:22:28.408Z,28
2016-12-27T07:23:08.941Z,28
2016-12-27T07:23:49.478Z,32
2016-12-27T07:24:29.997Z,36
2016-12-27T07:25:10.522Z,40
2016-12-27T07:25:51.057Z,44
2016-12-27T07:26:31.588Z,48
2016-12-27T07:27:12.123Z,48
2016-12-27T07:27:52.658Z,52
2016-12-27T07:28:33.187Z,52
2016-12-27T07:29:13.725Z,52
2016-12-27T07:29:54.261Z,52
2016-12-27T07:30:34.837Z,56
2016-12-27T07:31:15.366Z,56
2016-12-27T07:31:55.907Z,64
2016-12-27T07:32:36.440Z,68
2016-12-27T07:33:16.960Z,68
2016-12-27T07:33:57.493Z,72
2016-12-27T07:34:38.020Z,76
2016-12-27T07:35:18.551Z,80
2016-12-27T07:35:59.086Z,84
2016-12-27T07:36:39.620Z,92
2016-12-27T07:37:20.156Z,96
2016-12-27T07:38:00.695Z,96
2016-12-27T07:38:41.230Z,100
2016-12-27T07:39:21.750Z,104
2016-12-27T07:40:02.292Z,112
2016-12-27T07:40:42.823Z,124
2016-12-27T07:41:23.366Z,136
2016-12-27T07:42:03.905Z,144
2016-12-27T07:42:44.436Z,160
2016-12-27T07:43:24.973Z,168
2016-12-27T07:44:05.503Z,176
2016-12-27T07:44:46.044Z,188
2016-12-27T07:45:26.577Z,196
2016-12-27T07:46:07.108Z,216
2016-12-27T07:46:47.658Z,232
2016-12-27T07:47:28.177Z,248
2016-12-27T07:48:08.739Z,264
2016-12-27T07:48:49.274Z,280
2016-12-27T07:49:29.809Z,296
2016-12-27T07:50:10.343Z,312
2016-12-27T07:50:50.869Z,320
2016-12-27T07:51:31.397Z,316
2016-12-27T07:52:11.930Z,324
2016-12-27T07:52:52.462Z,320
2016-12-27T07:53:33.002Z,320
2016-12-27T07:54:13.538Z,312
2016-12-27T07:54:54.091Z,308
2016-12-27T07:55:34.621Z,316
2016-12-27T07:56:15.169Z,312
2016-12-27T07:56:55.695Z,312
2016-12-27T07:57:36.223Z,308
2016-12-27T07:58:16.822Z,316
2016-12-27T07:58:57.357Z,320
2016-12-27T07:59:37.880Z,332
2016-12-27T08:00:18.410Z,344
2016-12-27T08:00:58.949Z,356
2016-12-27T08:01:39.475Z,372
2016-12-27T08:02:20.022Z,380
2016-12-27T08:03:00.575Z,388
2016-12-27T08:03:41.103Z,396
2016-12-27T08:04:21.641Z,416
2016-12-27T08:05:02.172Z,432
2016-12-27T08:05:42.712Z,444
2016-12-27T08:06:23.253Z,468
2016-12-27T08:07:03.779Z,488
2016-12-27T08:07:44.313Z,508
2016-12-27T08:08:24.826Z,536
2016-12-27T08:09:05.361Z,568
2016-12-27T08:09:45.887Z,604
2016-12-27T08:10:26.429Z,624
2016-12-27T08:11:06.960Z,648
2016-12-27T08:11:47.499Z,668
2016-12-27T08:12:28.024Z,688
2016-12-27T08:13:08.563Z,708
2016-12-27T08:13:49.127Z,728
2016-12-27T08:14:29.664Z,740
2016-12-27T08:15:10.195Z,748
2016-12-27T08:15:50.727Z,772
2016-12-27T08:16:31.267Z,788
2016-12-27T08:17:11.788Z,812
2016-12-27T08:17:52.325Z,824
2016-12-27T08:18:32.866Z,836
2016-12-27T08:19:13.389Z,848
2016-12-27T08:19:53.928Z,860
2016-12-27T08:20:34.464Z,872
2016-12-27T08:21:14.985Z,884
2016-12-27T08:21:55.549Z,904
2016-12-27T08:22:36.086Z,916
2016-12-27T08:23:16.620Z,928
2016-12-27T08:23:57.198Z,936
2016-12-27T08:24:37.747Z,948
2016-12-27T08:25:18.281Z,968
2016-12-27T08:25:58.824Z,1000
2016-12-27T08:26:39.361Z,1024
2016-12-27T08:27:19.891Z,1056
2016-12-27T08:28:00.431Z,1116
2016-12-27T08:28:40.958Z,1156
2016-12-27T08:29:21.491Z,1172
2016-12-27T08:30:02.025Z,1156
2016-12-27T08:30:42.563Z,1128
2016-12-27T08:31:23.096Z,1096
2016-12-27T08:32:03.633Z,1056
2016-12-27T08:32:44.173Z,1024
2016-12-27T08:33:24.704Z,1004
2016-12-27T08:34:05.242Z,996
2016-12-27T08:34:45.781Z,996
2016-12-27T08:35:26.316Z,1008
2016-12-27T08:36:06.848Z,1036
2016-12-27T08:36:47.381Z,1088
2016-12-27T08:37:27.920Z,1100
2016-12-27T08:38:08.451Z,1104
2016-12-27T08:38:48.988Z,1104
2016-12-27T08:39:29.513Z,1140
2016-12-27T08:40:10.052Z,1180
2016-12-27T08:40:50.582Z,1236
2016-12-27T08:41:31.121Z,1308
2016-12-27T08:42:11.653Z,1400
2016-12-27T08:42:52.195Z,1548
2016-12-27T08:43:32.747Z,1684
2016-12-27T08:44:13.281Z,1760
2016-12-27T08:44:53.820Z,1740
2016-12-27T08:45:34.344Z,1736
2016-12-27T08:46:14.883Z,1816
2016-12-27T08:46:55.442Z,1844
2016-12-27T08:47:35.968Z,1816
2016-12-27T08:48:16.497Z,1732
2016-12-27T08:48:57.033Z,1612
2016-12-27T08:49:37.572Z,1540
2016-12-27T08:50:18.109Z,1532
2016-12-27T08:50:58.642Z,1540
2016-12-27T08:51:39.180Z,1548
2016-12-27T08:52:19.713Z,1488
2016-12-27T08:53:00.258Z,1452
2016-12-27T08:53:40.801Z,1428
2016-12-27T08:54:21.332Z,1440
2016-12-27T08:55:01.874Z,1456
2016-12-27T08:55:42.428Z,1448
2016-12-27T08:56:22.965Z,1464
2016-12-27T08:57:03.495Z,1496
2016-12-27T08:57:44.029Z,1536
2016-12-27T08:58:24.564Z,1568
2016-12-27T08:59:05.100Z,1588
2016-12-27T08:59:45.635Z,1668
2016-12-27T09:00:26.222Z,1688
2016-12-27T09:01:06.752Z,1672
2016-12-27T09:01:47.296Z,1660
2016-12-27T09:02:27.823Z,1652
2016-12-27T09:03:08.350Z,1644
2016-12-27T09:03:48.879Z,1640
2016-12-27T09:04:29.412Z,1616
2016-12-27T09:05:09.932Z,1600
2016-12-27T09:05:50.460Z,1568
2016-12-27T09:06:31.014Z,1544
2016-12-27T09:07:11.523Z,1548
2016-12-27T09:07:52.057Z,1596
2016-12-27T09:08:32.607Z,1600
2016-12-27T09:09:13.142Z,1528
2016-12-27T09:09:53.676Z,1524
2016-12-27T09:10:34.204Z,1648
2016-12-27T09:11:14.743Z,1484
2016-12-27T09:11:55.275Z,1352
2016-12-27T09:12:35.815Z,1356
2016-12-27T09:13:16.332Z,1384
2016-12-27T09:13:56.878Z,1488
2016-12-27T09:14:37.465Z,1616
2016-12-27T09:15:17.989Z,1788
2016-12-27T09:15:58.530Z,1944
2016-12-27T09:16:39.060Z,2124
2016-12-27T09:17:19.598Z,2276
2016-12-27T09:18:00.129Z,2504
2016-12-27T09:18:40.670Z,2776
2016-12-27T09:19:21.198Z,3504
2016-12-27T09:20:01.735Z,4108
2016-12-27T09:20:42.277Z,3820
2016-12-27T09:21:22.824Z,3488
2016-12-27T09:22:03.363Z,3216
2016-12-27T09:22:43.903Z,3568
2016-12-27T09:23:24.446Z,4224
2016-12-27T09:24:04.981Z,4120
2016-12-27T09:24:45.526Z,4696
2016-12-27T09:25:26.064Z,4908
2016-12-27T09:26:06.602Z,5100
2016-12-27T09:26:47.138Z,4788
2016-12-27T09:27:27.675Z,4244
2016-12-27T09:28:08.207Z,4016
2016-12-27T09:28:48.741Z,4296
2016-12-27T09:29:29.281Z,4272
2016-12-27T09:30:09.816Z,4236
2016-12-27T09:30:50.353Z,3784
2016-12-27T09:31:30.892Z,3392
2016-12-27T09:32:11.422Z,3740
2016-12-27T09:32:51.960Z,4692
2016-12-27T09:33:32.493Z,3664
2016-12-27T09:34:13.032Z,4208
2016-12-27T09:34:53.570Z,3956
2016-12-27T09:35:34.111Z,3156
2016-12-27T09:36:14.646Z,2736
2016-12-27T09:36:55.177Z,3008
2016-12-27T09:37:35.707Z,3428
2016-12-27T09:38:16.243Z,3672
2016-12-27T09:38:56.785Z,4584
2016-12-27T09:39:37.324Z,5184
2016-12-27T09:40:17.857Z,4748
2016-12-27T09:40:58.388Z,5480
2016-12-27T09:41:38.921Z,4364
2016-12-27T09:42:19.457Z,3692
2016-12-27T09:42:59.994Z,3336
2016-12-27T09:43:40.541Z,3372
2016-12-27T09:44:21.074Z,3376
2016-12-27T09:45:01.607Z,3744
2016-12-27T09:45:42.142Z,4100
2016-12-27T09:46:22.684Z,3564
2016-12-27T09:47:03.220Z,3656
2016-12-27T09:47:43.750Z,3644
2016-12-27T09:48:24.291Z,3164
2016-12-27T09:49:04.824Z,3244
2016-12-27T09:49:45.359Z,3488
2016-12-27T09:50:25.902Z,3888
2016-12-27T09:51:06.434Z,4048
2016-12-27T09:51:46.962Z,3860
2016-12-27T09:52:27.496Z,4572
2016-12-27T09:53:08.034Z,5832
2016-12-27T09:53:48.564Z,5340
2016-12-27T09:54:29.107Z,4784
2016-12-27T09:55:09.637Z,6756
2016-12-27T09:55:50.171Z,6564
2016-12-27T09:56:30.790Z,6768
2016-12-27T09:57:11.333Z,6872
2016-12-27T09:57:51.867Z,6728
2016-12-27T09:58:32.416Z,5956
2016-12-27T09:59:12.957Z,6424
2016-12-27T09:59:53.495Z,7096
2016-12-27T10:00:34.051Z,7124
2016-12-27T10:01:14.582Z,7188
2016-12-27T10:01:55.134Z,7296
2016-12-27T10:02:35.669Z,7352
2016-12-27T10:03:16.203Z,7404
2016-12-27T10:03:56.780Z,7448
2016-12-27T10:04:37.318Z,7504
2016-12-27T10:05:17.860Z,7596
2016-12-27T10:05:58.397Z,7612
2016-12-27T10:06:38.934Z,7636
2016-12-27T10:07:19.464Z,7664
2016-12-27T10:08:00.002Z,7724
2016-12-27T10:08:40.541Z,7748
2016-12-27T10:09:21.075Z,7860
2016-12-27T10:10:01.614Z,7892
2016-12-27T10:10:42.160Z,7968
2016-12-27T10:11:22.700Z,8024
2016-12-27T10:12:03.242Z,8084
2016-12-27T10:12:43.788Z,8244
2016-12-27T10:13:24.329Z,8332
2016-12-27T10:14:04.859Z,8252
2016-12-27T10:14:45.408Z,7864
2016-12-27T10:15:25.945Z,9364
2016-12-27T10:16:06.493Z,9520
2016-12-27T10:16:47.024Z,9876
2016-12-27T10:17:27.566Z,9860
2016-12-27T10:18:08.105Z,10048
2016-12-27T10:18:48.652Z,10412
2016-12-27T10:19:29.193Z,9444
2016-12-27T10:20:09.733Z,7140
2016-12-27T10:20:50.272Z,8976
2016-12-27T10:21:30.808Z,9880
2016-12-27T10:22:11.342Z,9716
2016-12-27T10:22:51.877Z,11008
2016-12-27T10:23:32.421Z,11352
2016-12-27T10:24:12.955Z,11028